AirNav   Everest Fuels
 
 953 users online  

96MI Dick Huvaere's Heliport
Petoskey, Michigan, USA

GOING TO PETOSKEY?


FAA INFORMATION EFFECTIVE 07 NOVEMBER 2019

Location

FAA Identifier: 96MI
Lat/Long: 45-23-44.1000N 084-52-27.6000W
45-23.735000N 084-52.460000W
45.3955833,-84.8743333
(estimated)
Elevation: 675 ft. / 206 m (estimated)
From city: 10 miles NE of PETOSKEY, MI
Time zone: UTC -5 (UTC -4 during Daylight Saving Time)
Zip code: 49770

Heliport Operations

Heliport use: Private use. Permission required prior to landing
Activation date: 02/2017
Control tower: no
ARTCC: MINNEAPOLIS CENTER
FSS: LANSING FLIGHT SERVICE STATION
Attendance: 
Wind indicator: no
Segmented circle: no

Heliport Communications

WX AWOS-3 at MGN (2.4 nm NW): 119.925 (231-347-5231)
WX ASOS at PLN (11 nm N): 119.025 (231-539-7700)
WX AWOS-3 at CVX (18 nm W): 120.0 (231-237-9703)

Nearby radio navigation aids

VOR radial/distance  VOR name  Freq  Var
PLNr218/16.6PELLSTON VORTAC111.8006W
GLRr349/24.1GAYLORD VOR/DME109.2006W

 
NDB name  Hdg/Dist  Freq  Var  ID
CHARLEVOIX076/17.639205WCVX -.-. ...- -..-
GRAYLING003/38.835906WGYG --. -.-- --.

Heliport Services

Runway Information

Helipad H1

Dimensions: 35 x 35 ft. / 11 x 11 m
Surface: turf
Latitude: 45-23.735000N
Longitude: 084-52.460000W
Elevation: 675.0 ft.
Traffic pattern: leftleft

Heliport Ownership and Management from official FAA records

Ownership: Privately-owned
Owner: DICK HUVAERE LAND, INC.
1815 FOCHTMAN INDUSTRIAL DRIVE
PETOSKEY, MI 49770
Phone 586-430-9802
Manager: RYAN ROSCIA
1815 FOCHTMAN INDUSTRIAL DRIVE
PETOSKEY, MI 49770
Phone 586-430-9802

Additional Remarks

A PRIVATE HELIPORT TO BE USED ONLY WITH EXPLICIT PERMISSION FROM THE OWNER.
FOR CD CTC MINNEAPOLIS ARTCC AT 651-463-5588.

Instrument Procedures

There are no published instrument procedures at 96MI.

Some nearby airports with instrument procedures:

KMGN - Harbor Springs Airport (2 nm NW)
KPLN - Pellston Regional Airport of Emmet County (11 nm N)
N98 - Boyne City Municipal Airport (12 nm SW)
KBFA - Boyne Mountain Airport (14 nm S)
KCVX - Charlevoix Municipal Airport (18 nm W)
 
Loc | Ops | Rwys | IFR | FBO | Links
Com | Nav | Svcs | Stats | Notes
Aerial photo
No photo
 
Airport distance calculator
Flying to Dick Huvaere's Heliport? Find the distance to fly.

From to 96MI

Sunrise and sunset
Times for 21-Nov-2019
 Local
(UTC-5)
 Zulu
(UTC)
Morning civil twilight07:1512:15
Sunrise07:4712:47
Sunset17:0322:03
Evening civil twilight17:3622:36

Current date and time
Zulu (UTC)  22-Nov-2019 01:14:03
Local (UTC-5)  21-Nov-2019 20:14:03
 
METAR
KMGN 
3nm NW 
220056Z AUTO 29012G19KT 10SM OVC013 03/03 A2963 RMK AO2 T00400036
KPLN 
11nm N 
220054Z AUTO 30016G25KT 10SM OVC010 04/02 A2963 RMK AO2 CIG 009V014 SLP039 T00390022
KCVX 
18nm W 
220056Z AUTO 30022G31KT 10SM OVC015 04/01 A2967 RMK AO2 T00410011
TAF
KPLN 
11nm N 
211739Z 2118/2218 17008KT 2SM -RA BR OVC010 WS015/20040KT FM212000 20008KT 3SM -RA BR OVC006 FM212300 28011G20KT 5SM BR OVC007 FM220200 31015G25KT 6SM BR VCSH OVC010 FM220500 31017G29KT P6SM VCSH OVC018 FM221000 32015G28KT P6SM VCSH OVC025 FM221400 31012G22KT P6SM BKN040
NOTAMs
Click for the latest NOTAMs
NOTAMs are issued by the DoD/FAA and will open in a separate window not controlled by AirNav.

 

 
 

Would you like to see your business listed on this page?

 If your business provides an interesting product or service to pilots, flight crews, aircraft, or users of the Dick Huvaere's Heliport, you should consider listing it here.  To start the listing process, click on the button below
 
Add a business
 

Other Pages about Dick Huvaere's Heliport

Update a link
 
Copyright © AirNav, LLC. All rights reserved. Privacy Policy  Contact